createdAt,value
2023-05-06T00:02:20.019Z,11.80
2023-05-06T00:05:21.693Z,11.82
2023-05-06T00:08:23.663Z,11.89
2023-05-06T00:11:26.760Z,11.82
2023-05-06T00:14:28.387Z,11.86
2023-05-06T00:17:30.101Z,11.96
2023-05-06T00:20:32.016Z,12.01
2023-05-06T00:23:33.633Z,12.00
2023-05-06T00:26:36.602Z,12.01
2023-05-06T00:29:38.290Z,12.05
2023-05-06T00:32:39.948Z,12.06
2023-05-06T00:35:41.624Z,12.04
2023-05-06T00:38:43.623Z,12.04
2023-05-06T00:41:46.687Z,12.00
2023-05-06T00:44:48.656Z,12.05
2023-05-06T00:47:50.439Z,12.01
2023-05-06T00:50:52.464Z,12.00
2023-05-06T00:53:54.259Z,11.90
2023-05-06T00:56:57.320Z,11.98
2023-05-06T00:59:59.441Z,12.02
2023-05-06T01:03:01.848Z,12.04
2023-05-06T01:06:11.746Z,12.06
2023-05-06T01:09:20.803Z,12.12
2023-05-06T01:12:34.414Z,12.14
2023-05-06T01:15:43.023Z,12.15
2023-05-06T01:18:45.672Z,12.18
2023-05-06T01:21:51.753Z,12.18
2023-05-06T01:24:55.111Z,12.21
2023-05-06T01:27:56.792Z,12.25
2023-05-06T01:31:05.338Z,12.21
2023-05-06T01:34:14.175Z,12.21
2023-05-06T01:37:22.268Z,12.29
2023-05-06T01:40:27.489Z,12.15
2023-05-06T01:43:32.528Z,12.17
2023-05-06T01:46:35.492Z,12.10
2023-05-06T01:49:37.746Z,11.95
2023-05-06T01:52:39.462Z,11.82
2023-05-06T01:55:42.567Z,11.78
2023-05-06T01:58:44.357Z,11.80
2023-05-06T02:01:46.389Z,11.85
2023-05-06T02:04:48.046Z,11.89
2023-05-06T02:07:49.732Z,11.94
2023-05-06T02:10:53.263Z,11.94
2023-05-06T02:13:55.265Z,11.92
2023-05-06T02:16:56.913Z,11.93
2023-05-06T02:19:59.545Z,11.91
2023-05-06T02:23:01.140Z,11.91
2023-05-06T02:26:04.131Z,11.89
2023-05-06T02:29:06.047Z,11.87
2023-05-06T02:32:07.643Z,11.82
2023-05-06T02:35:10.077Z,11.78
2023-05-06T02:38:11.952Z,11.73
2023-05-06T02:41:14.946Z,11.72
2023-05-06T02:44:16.560Z,11.70
2023-05-06T02:47:18.867Z,11.68
2023-05-06T02:50:20.539Z,11.71
2023-05-06T02:53:22.258Z,11.71
2023-05-06T02:56:25.174Z,11.69
2023-05-06T02:59:26.991Z,11.70
2023-05-06T03:02:28.655Z,11.66
2023-05-06T03:05:30.332Z,11.65
2023-05-06T03:08:32.356Z,11.63
2023-05-06T03:11:35.349Z,11.62
2023-05-06T03:14:36.959Z,11.60
2023-05-06T03:17:38.712Z,11.62
2023-05-06T03:20:40.426Z,11.60
2023-05-06T03:23:42.146Z,11.59
2023-05-06T03:26:45.109Z,11.56
2023-05-06T03:29:46.963Z,11.59
2023-05-06T03:32:48.985Z,11.65
2023-05-06T03:35:50.929Z,11.66
2023-05-06T03:38:52.672Z,11.67
2023-05-06T03:41:55.689Z,11.64
2023-05-06T03:44:57.587Z,11.69
2023-05-06T03:47:59.545Z,11.73
2023-05-06T03:51:01.387Z,11.74
2023-05-06T03:54:03.405Z,11.76
2023-05-06T03:57:07.697Z,11.81
2023-05-06T04:00:10.577Z,11.86
2023-05-06T04:03:19.409Z,11.89
2023-05-06T04:06:21.142Z,11.95
2023-05-06T04:09:22.817Z,12.02
2023-05-06T04:12:25.937Z,12.07
2023-05-06T04:15:27.631Z,12.10
2023-05-06T04:18:29.798Z,12.16
2023-05-06T04:21:31.444Z,12.23
2023-05-06T04:24:33.152Z,12.32
2023-05-06T04:27:36.138Z,12.33
2023-05-06T04:30:37.831Z,12.41
2023-05-06T04:33:39.815Z,12.50
2023-05-06T04:36:42.256Z,12.63
2023-05-06T04:39:43.913Z,12.71
2023-05-06T04:42:47.172Z,12.81
2023-05-06T04:45:48.882Z,12.91
2023-05-06T04:48:50.714Z,13.04
2023-05-06T04:51:52.838Z,13.17
2023-05-06T04:54:54.468Z,13.31
2023-05-06T04:57:59.552Z,13.44
2023-05-06T05:01:04.323Z,13.60
2023-05-06T05:04:06.062Z,13.75
2023-05-06T05:07:08.042Z,13.94
2023-05-06T05:10:10.297Z,14.02
2023-05-06T05:13:13.731Z,14.10
2023-05-06T05:16:15.652Z,14.21
2023-05-06T05:19:17.830Z,14.20
2023-05-06T05:22:19.498Z,14.38
2023-05-06T05:25:21.191Z,14.35
2023-05-06T05:28:24.189Z,14.48
2023-05-06T05:31:25.944Z,14.57
2023-05-06T05:34:27.739Z,14.62
2023-05-06T05:37:29.366Z,14.67
2023-05-06T05:40:30.966Z,14.72
2023-05-06T05:43:34.221Z,14.69
2023-05-06T05:46:36.642Z,14.75
2023-05-06T05:49:38.534Z,14.83
2023-05-06T05:52:40.221Z,14.92
2023-05-06T05:55:42.181Z,14.92
2023-05-06T05:58:45.145Z,14.95
2023-05-06T06:01:47.072Z,14.95
2023-05-06T06:04:48.692Z,15.01
2023-05-06T06:07:50.972Z,15.08
2023-05-06T06:10:52.637Z,15.15
2023-05-06T06:13:56.004Z,15.22
2023-05-06T06:16:58.324Z,15.20
2023-05-06T06:19:59.992Z,15.30
2023-05-06T06:23:01.784Z,15.45
2023-05-06T06:26:03.650Z,15.60
2023-05-06T06:29:06.680Z,15.87
2023-05-06T06:32:08.376Z,16.01
2023-05-06T06:35:10.204Z,16.24
2023-05-06T06:38:12.197Z,16.42
2023-05-06T06:41:14.173Z,16.57
2023-05-06T06:44:17.195Z,16.67
2023-05-06T06:47:18.852Z,16.79
2023-05-06T06:50:20.718Z,16.89
2023-05-06T06:53:22.373Z,17.01
2023-05-06T06:56:24.025Z,17.14
2023-05-06T06:59:27.272Z,17.22
2023-05-06T07:02:28.958Z,17.41
2023-05-06T07:05:30.583Z,17.50
2023-05-06T07:08:32.319Z,17.60
2023-05-06T07:11:34.070Z,17.80
2023-05-06T07:14:37.124Z,17.92
2023-05-06T07:17:38.872Z,18.14
2023-05-06T07:20:40.979Z,18.20
2023-05-06T07:23:42.623Z,18.38
2023-05-06T07:26:44.279Z,18.56
2023-05-06T07:29:47.522Z,18.75
2023-05-06T07:32:49.035Z,18.92
2023-05-06T07:35:52.566Z,19.02
2023-05-06T07:38:54.278Z,19.20
2023-05-06T07:41:56.457Z,19.28
2023-05-06T07:44:59.755Z,19.32
2023-05-06T07:48:01.423Z,19.37
2023-05-06T07:51:03.909Z,19.47
2023-05-06T07:54:05.606Z,19.68
2023-05-06T07:57:07.266Z,19.86
2023-05-06T08:00:11.384Z,20.06
2023-05-06T08:03:13.225Z,20.21
2023-05-06T08:06:15.419Z,20.40
2023-05-06T08:09:22.263Z,20.60
2023-05-06T08:12:24.695Z,20.75
2023-05-06T08:15:27.899Z,20.78
2023-05-06T08:18:30.005Z,20.81
2023-05-06T08:21:31.839Z,20.81
2023-05-06T08:24:33.663Z,21.06
2023-05-06T08:27:35.291Z,21.22
2023-05-06T08:30:38.267Z,21.29
2023-05-06T08:33:39.922Z,21.46
2023-05-06T08:36:41.850Z,21.56
2023-05-06T08:39:43.854Z,21.64
2023-05-06T08:42:46.456Z,21.67
2023-05-06T08:45:49.851Z,21.70
2023-05-06T08:48:52.827Z,21.82
2023-05-06T08:51:55.091Z,22.05
2023-05-06T08:54:58.023Z,22.30
2023-05-06T08:58:00.281Z,22.52
2023-05-06T09:01:04.181Z,22.84
2023-05-06T09:04:07.047Z,22.89
2023-05-06T09:07:08.847Z,22.78
2023-05-06T09:10:13.512Z,22.60
2023-05-06T09:13:18.573Z,22.74
2023-05-06T09:16:29.218Z,22.66
2023-05-06T09:19:31.377Z,22.47
2023-05-06T09:22:33.244Z,22.61
2023-05-06T09:25:35.891Z,22.88
2023-05-06T09:28:37.797Z,23.06
2023-05-06T09:31:43.125Z,22.87
2023-05-06T09:34:44.802Z,22.87
2023-05-06T09:37:46.415Z,22.71
2023-05-06T09:40:48.017Z,22.75
2023-05-06T09:43:49.988Z,22.70
2023-05-06T09:46:53.123Z,22.82
2023-05-06T09:49:57.253Z,23.10
2023-05-06T09:53:00.372Z,23.22
2023-05-06T09:56:02.746Z,23.20
2023-05-06T09:59:05.831Z,23.20
2023-05-06T10:02:11.040Z,22.92
2023-05-06T10:05:14.026Z,22.71
2023-05-06T10:08:18.825Z,22.59
2023-05-06T10:11:25.038Z,22.86
2023-05-06T10:14:26.713Z,22.87
2023-05-06T10:17:31.856Z,22.94
2023-05-06T10:20:35.668Z,22.77
2023-05-06T10:23:44.303Z,22.63
2023-05-06T10:26:46.310Z,22.57
2023-05-06T10:29:49.079Z,22.46
2023-05-06T10:32:56.538Z,22.56
2023-05-06T10:36:10.558Z,22.62
2023-05-06T10:39:13.141Z,22.87
2023-05-06T10:42:16.983Z,22.89
2023-05-06T10:45:18.768Z,22.83
2023-05-06T10:48:21.806Z,22.90
2023-05-06T10:51:24.350Z,23.00
2023-05-06T10:54:26.255Z,23.15
2023-05-06T10:57:40.825Z,23.18
2023-05-06T11:00:52.543Z,23.08
2023-05-06T11:03:55.778Z,23.14
2023-05-06T11:07:08.255Z,23.00
2023-05-06T11:10:10.965Z,23.18
2023-05-06T11:13:23.964Z,23.36
2023-05-06T11:16:47.149Z,23.40
2023-05-06T11:19:50.167Z,23.71
2023-05-06T11:22:52.138Z,23.84
2023-05-06T11:25:54.696Z,23.72
2023-05-06T11:28:59.527Z,23.75
2023-05-06T11:32:01.361Z,23.82
2023-05-06T11:35:05.412Z,23.97
2023-05-06T11:38:11.103Z,23.83
2023-05-06T11:41:13.327Z,24.27
2023-05-06T11:44:25.229Z,24.21
2023-05-06T11:47:26.953Z,24.08
2023-05-06T11:50:30.041Z,23.82
2023-05-06T11:53:31.778Z,23.90
2023-05-06T11:56:47.293Z,24.01
2023-05-06T11:59:54.243Z,23.73
2023-05-06T12:02:56.401Z,23.77
2023-05-06T12:06:00.180Z,23.66
2023-05-06T12:09:03.055Z,23.74
2023-05-06T12:12:06.679Z,24.10
2023-05-06T12:15:10.268Z,24.15
2023-05-06T12:18:12.766Z,24.28
2023-05-06T12:21:22.077Z,24.22
2023-05-06T12:24:27.708Z,24.30
2023-05-06T12:27:33.189Z,24.54
2023-05-06T12:30:34.868Z,24.74
2023-05-06T12:33:44.572Z,24.83
2023-05-06T12:36:47.937Z,24.74
2023-05-06T12:39:49.749Z,24.97
2023-05-06T12:42:54.732Z,24.81
2023-05-06T12:46:06.637Z,24.80
2023-05-06T12:49:08.602Z,24.62
2023-05-06T12:52:11.884Z,24.64
2023-05-06T12:55:13.816Z,24.63
2023-05-06T12:58:15.953Z,24.59
2023-05-06T13:01:20.140Z,24.66
2023-05-06T13:04:22.075Z,24.58
2023-05-06T13:07:25.067Z,24.77
2023-05-06T13:10:26.513Z,24.87
2023-05-06T13:13:28.173Z,24.81
2023-05-06T13:19:33.562Z,24.71
2023-05-06T13:22:50.653Z,25.00
2023-05-06T13:26:04.147Z,25.10
2023-05-06T13:29:06.233Z,24.94
2023-05-06T13:32:08.936Z,24.96
2023-05-06T13:35:10.956Z,25.11
2023-05-06T13:38:14.268Z,25.27
2023-05-06T13:41:15.817Z,24.99
2023-05-06T13:44:19.399Z,24.88
2023-05-06T13:47:21.321Z,24.78
2023-05-06T13:50:23.019Z,24.78
2023-05-06T13:53:26.111Z,24.88
2023-05-06T13:56:27.813Z,24.83
2023-05-06T13:59:29.450Z,24.88
2023-05-06T14:02:31.614Z,24.85
2023-05-06T14:05:33.420Z,24.78
2023-05-06T14:08:36.497Z,24.73
2023-05-06T14:11:40.688Z,24.73
2023-05-06T14:14:42.584Z,24.58
2023-05-06T14:17:44.534Z,24.33
2023-05-06T14:20:46.162Z,24.41
2023-05-06T14:23:49.097Z,24.30
2023-05-06T14:26:52.434Z,23.90
2023-05-06T14:29:54.562Z,23.50
2023-05-06T14:32:56.579Z,23.31
2023-05-06T14:35:58.188Z,23.19
2023-05-06T14:39:01.522Z,23.17
2023-05-06T14:42:03.288Z,23.18
2023-05-06T14:45:07.760Z,23.37
2023-05-06T14:48:09.434Z,23.72
2023-05-06T14:51:18.805Z,23.97
2023-05-06T14:54:23.156Z,23.10
2023-05-06T14:57:24.995Z,22.54
2023-05-06T15:00:26.734Z,22.09
2023-05-06T15:03:28.657Z,21.47
2023-05-06T15:06:30.755Z,21.14
2023-05-06T15:09:34.083Z,20.95
2023-05-06T15:12:36.580Z,20.90
2023-05-06T15:15:38.771Z,20.76
2023-05-06T15:18:40.332Z,20.54
2023-05-06T15:21:41.949Z,20.58
2023-05-06T15:24:45.049Z,20.64
2023-05-06T15:27:46.673Z,20.45
2023-05-06T15:30:48.383Z,20.36
2023-05-06T15:33:52.372Z,20.13
2023-05-06T15:36:54.255Z,20.09
2023-05-06T15:40:01.165Z,19.99
2023-05-06T15:43:04.508Z,19.96
2023-05-06T15:46:06.045Z,20.01
2023-05-06T15:52:21.285Z,19.90
2023-05-06T15:55:27.200Z,19.90
2023-05-06T15:58:28.869Z,19.81
2023-05-06T16:04:37.711Z,19.74
2023-05-06T16:07:39.636Z,19.73
2023-05-06T16:10:42.934Z,19.66
2023-05-06T16:13:46.352Z,19.64
2023-05-06T16:16:58.446Z,19.55
2023-05-06T16:20:00.314Z,19.68
2023-05-06T16:23:01.973Z,19.64
2023-05-06T16:26:05.084Z,19.60
2023-05-06T16:29:06.801Z,19.56
2023-05-06T16:32:08.685Z,19.39
2023-05-06T16:35:10.767Z,19.32
2023-05-06T16:38:13.309Z,19.27
2023-05-06T16:41:16.433Z,19.22
2023-05-06T16:44:18.324Z,19.24
2023-05-06T16:47:24.095Z,19.15
2023-05-06T16:50:26.142Z,19.11
2023-05-06T16:53:28.961Z,19.06
2023-05-06T16:56:44.167Z,19.03
2023-05-06T16:59:53.187Z,18.96
2023-05-06T17:02:55.102Z,18.96
2023-05-06T17:05:57.049Z,18.91
2023-05-06T17:09:01.691Z,18.92
2023-05-06T17:12:05.271Z,18.84
2023-05-06T17:15:08.302Z,18.72
2023-05-06T17:18:10.058Z,18.62
2023-05-06T17:21:12.010Z,18.64
2023-05-06T17:24:13.606Z,18.60
2023-05-06T17:27:16.903Z,18.56
2023-05-06T17:30:18.374Z,18.52
2023-05-06T17:33:20.499Z,18.46
2023-05-06T17:36:22.202Z,18.43
2023-05-06T17:39:24.326Z,18.43
2023-05-06T17:42:27.566Z,18.36
2023-05-06T17:45:29.005Z,18.37
2023-05-06T17:48:30.649Z,18.29
2023-05-06T17:51:32.324Z,18.21
2023-05-06T17:54:33.981Z,18.13
2023-05-06T17:57:37.089Z,18.04
2023-05-06T18:00:38.746Z,17.97
2023-05-06T18:03:42.890Z,17.90
2023-05-06T18:06:46.156Z,17.78
2023-05-06T18:09:48.145Z,17.74
2023-05-06T18:12:51.555Z,17.68
2023-05-06T18:15:53.456Z,17.63
2023-05-06T18:18:55.145Z,17.55
2023-05-06T18:21:56.870Z,17.49
2023-05-06T18:24:58.618Z,17.40
2023-05-06T18:28:01.766Z,17.37
2023-05-06T18:31:03.427Z,17.31
2023-05-06T18:34:05.094Z,17.25
2023-05-06T18:37:06.982Z,17.24
2023-05-06T18:40:09.332Z,17.19
2023-05-06T18:43:12.769Z,17.18
2023-05-06T18:46:14.832Z,17.10
2023-05-06T18:49:16.531Z,17.00
2023-05-06T18:52:18.291Z,16.94
2023-05-06T18:55:20.052Z,16.90
2023-05-06T18:58:23.125Z,16.84
2023-05-06T19:01:24.876Z,16.78
2023-05-06T19:04:27.025Z,16.77
2023-05-06T19:07:28.868Z,16.73
2023-05-06T19:10:30.502Z,16.65
2023-05-06T19:13:33.463Z,16.57
2023-05-06T19:16:35.565Z,16.49
2023-05-06T19:19:37.243Z,16.43
2023-05-06T19:22:38.942Z,16.38
2023-05-06T19:25:40.759Z,16.30
2023-05-06T19:28:44.001Z,16.25
2023-05-06T19:31:45.740Z,16.19
2023-05-06T19:34:47.769Z,16.15
2023-05-06T19:37:49.540Z,16.11
2023-05-06T19:40:51.252Z,16.17
2023-05-06T19:43:54.447Z,16.15
2023-05-06T19:46:56.086Z,16.13
2023-05-06T19:49:57.771Z,16.13
2023-05-06T19:52:59.512Z,16.15
2023-05-06T19:56:08.801Z,16.16
2023-05-06T19:59:11.823Z,16.18
2023-05-06T20:02:14.001Z,16.21
2023-05-06T20:05:15.771Z,16.18
2023-05-06T20:08:17.527Z,16.18
2023-05-06T20:11:19.656Z,16.18
2023-05-06T20:14:22.706Z,16.17
2023-05-06T20:17:24.324Z,16.13
2023-05-06T20:20:25.940Z,16.15
2023-05-06T20:23:27.646Z,16.12
2023-05-06T20:26:29.327Z,16.16
2023-05-06T20:29:32.394Z,16.17
2023-05-06T20:32:34.330Z,16.14
2023-05-06T20:35:36.007Z,16.08
2023-05-06T20:38:37.634Z,16.19
2023-05-06T20:41:39.330Z,16.20
2023-05-06T20:44:42.853Z,16.13
2023-05-06T20:47:44.966Z,16.26
2023-05-06T20:50:46.694Z,16.25
2023-05-06T20:53:48.646Z,16.22
2023-05-06T20:56:50.328Z,16.20
2023-05-06T20:59:53.368Z,16.27
2023-05-06T21:02:55.041Z,16.26
2023-05-06T21:05:56.743Z,16.21
2023-05-06T21:08:58.634Z,16.19
2023-05-06T21:12:00.291Z,16.15
2023-05-06T21:15:03.849Z,16.12
2023-05-06T21:18:05.794Z,16.09
2023-05-06T21:21:07.536Z,16.09
2023-05-06T21:24:09.160Z,16.00
2023-05-06T21:27:10.868Z,16.03
2023-05-06T21:30:14.484Z,15.99
2023-05-06T21:33:16.056Z,15.95
2023-05-06T21:36:17.678Z,15.87
2023-05-06T21:39:19.618Z,15.80
2023-05-06T21:42:21.220Z,15.78
2023-05-06T21:45:24.224Z,15.72
2023-05-06T21:48:25.882Z,15.66
2023-05-06T21:51:28.338Z,15.74
2023-05-06T21:54:30.105Z,15.69
2023-05-06T21:57:31.829Z,15.68
2023-05-06T22:00:34.869Z,15.61
2023-05-06T22:03:36.648Z,15.55
2023-05-06T22:06:38.586Z,15.48
2023-05-06T22:09:40.252Z,15.49
2023-05-06T22:12:42.226Z,15.49
2023-05-06T22:15:45.199Z,15.40
2023-05-06T22:18:46.797Z,15.31
2023-05-06T22:21:48.396Z,15.27
2023-05-06T22:24:50.046Z,15.28
2023-05-06T22:27:52.115Z,15.29
2023-05-06T22:30:55.132Z,15.24
2023-05-06T22:33:56.804Z,15.17
2023-05-06T22:37:00.446Z,15.19
2023-05-06T22:40:02.786Z,15.24
2023-05-06T22:43:04.631Z,15.27
2023-05-06T22:46:07.710Z,15.22
2023-05-06T22:49:09.333Z,15.24
2023-05-06T22:52:11.218Z,15.18
2023-05-06T22:55:13.213Z,15.47
2023-05-06T22:58:15.029Z,15.54
2023-05-06T23:01:18.179Z,15.48
2023-05-06T23:04:19.970Z,15.50
2023-05-06T23:07:21.647Z,15.43
2023-05-06T23:10:23.785Z,15.53
2023-05-06T23:13:25.509Z,15.42
2023-05-06T23:16:28.601Z,15.39
2023-05-06T23:19:30.477Z,15.32
2023-05-06T23:22:32.108Z,15.32
2023-05-06T23:25:33.757Z,15.29
2023-05-06T23:28:35.454Z,15.27
2023-05-06T23:31:38.777Z,15.26
2023-05-06T23:34:40.418Z,15.23
2023-05-06T23:37:42.082Z,15.18
2023-05-06T23:40:44.155Z,15.15
2023-05-06T23:43:46.055Z,15.07
2023-05-06T23:46:49.271Z,15.04
2023-05-06T23:49:51.224Z,14.95
2023-05-06T23:52:52.885Z,15.04
2023-05-06T23:55:55.153Z,15.09
2023-05-06T23:58:56.778Z,15.02
